createdAt,value
2022-09-16T00:00:55.440Z,11.80
2022-09-16T00:03:23.224Z,12.38
2022-09-16T00:05:54.381Z,10.85
2022-09-16T00:08:22.921Z,14.68
2022-09-16T00:10:50.826Z,7.85
2022-09-16T00:13:19.034Z,12.88
2022-09-16T00:15:49.187Z,15.52
2022-09-16T00:18:16.932Z,13.32
2022-09-16T00:20:48.665Z,15.98
2022-09-16T00:23:17.970Z,14.85
2022-09-16T00:25:51.923Z,18.33
2022-09-16T00:28:21.790Z,12.48
2022-09-16T00:30:50.193Z,18.40
2022-09-16T00:33:18.390Z,21.10
2022-09-16T00:35:46.335Z,20.83
2022-09-16T00:38:14.019Z,16.23
2022-09-16T00:40:46.563Z,19.67
2022-09-16T00:43:15.556Z,18.23
2022-09-16T00:45:45.999Z,25.38
2022-09-16T00:48:21.331Z,19.55
2022-09-16T00:50:52.059Z,25.83
2022-09-16T00:53:23.537Z,22.27
2022-09-16T00:55:53.817Z,19.53
2022-09-16T00:58:35.944Z,18.75
2022-09-16T01:01:05.753Z,22.70
2022-09-16T01:03:38.220Z,17.38
2022-09-16T01:08:33.667Z,18.98
2022-09-16T01:11:01.238Z,26.75
2022-09-16T01:13:28.690Z,20.52
2022-09-16T01:16:09.758Z,22.77
2022-09-16T01:19:06.444Z,30.77
2022-09-16T01:21:51.870Z,26.58
2022-09-16T01:24:40.820Z,20.52
2022-09-16T01:27:10.965Z,29.60
2022-09-16T01:29:56.424Z,22.17
2022-09-16T01:32:39.265Z,27.67
2022-09-16T01:36:00.954Z,17.98
2022-09-16T01:38:48.592Z,20.75
2022-09-16T01:41:28.183Z,25.42
2022-09-16T01:44:06.605Z,18.73
2022-09-16T01:46:56.907Z,25.83
2022-09-16T01:49:45.770Z,23.83
2022-09-16T01:52:36.990Z,24.15
2022-09-16T01:55:20.154Z,23.80
2022-09-16T01:58:13.394Z,31.95
2022-09-16T02:00:43.132Z,25.65
2022-09-16T02:03:24.219Z,18.55
2022-09-16T02:05:56.802Z,18.67
2022-09-16T02:08:33.391Z,19.27
2022-09-16T02:11:03.678Z,17.98
2022-09-16T02:13:39.593Z,21.05
2022-09-16T02:16:42.550Z,17.02
2022-09-16T02:21:45.665Z,16.80
2022-09-16T02:24:19.353Z,25.83
2022-09-16T02:26:55.168Z,13.43
2022-09-16T02:29:27.049Z,15.63
2022-09-16T02:32:00.162Z,15.00
2022-09-16T02:34:38.206Z,15.82
2022-09-16T02:37:14.350Z,17.00
2022-09-16T02:39:46.762Z,21.35
2022-09-16T02:44:41.806Z,17.98
2022-09-16T02:47:33.015Z,15.90
2022-09-16T02:50:29.625Z,21.77
2022-09-16T02:53:13.824Z,23.27
2022-09-16T02:55:56.520Z,22.60
2022-09-16T02:58:24.197Z,13.23
2022-09-16T03:00:55.293Z,17.20
2022-09-16T03:03:22.842Z,21.17
2022-09-16T03:06:08.758Z,20.75
2022-09-16T03:08:38.488Z,16.45
2022-09-16T03:11:30.310Z,17.05
2022-09-16T03:14:14.089Z,22.70
2022-09-16T03:16:53.297Z,27.08
2022-09-16T03:19:44.953Z,17.15
2022-09-16T03:22:27.838Z,17.92
2022-09-16T03:25:05.235Z,15.30
2022-09-16T03:27:52.579Z,18.95
2022-09-16T03:30:20.422Z,17.15
2022-09-16T03:32:59.604Z,19.50
2022-09-16T03:35:32.027Z,20.65
2022-09-16T03:40:30.148Z,20.73
2022-09-16T03:42:58.390Z,24.00
2022-09-16T03:45:26.128Z,17.70
2022-09-16T03:47:54.023Z,18.83
2022-09-16T03:50:21.955Z,17.88
2022-09-16T03:52:49.351Z,17.35
2022-09-16T03:55:17.094Z,19.90
2022-09-16T03:57:44.538Z,18.60
2022-09-16T04:00:12.394Z,25.67
2022-09-16T04:02:39.860Z,23.58
2022-09-16T04:05:08.921Z,23.27
2022-09-16T04:07:36.702Z,17.13
2022-09-16T04:10:05.846Z,20.13
2022-09-16T04:12:33.294Z,17.70
2022-09-16T04:15:01.123Z,25.65
2022-09-16T04:17:32.248Z,22.95
2022-09-16T04:19:59.808Z,16.58
2022-09-16T04:22:31.467Z,18.73
2022-09-16T04:24:58.900Z,24.15
2022-09-16T04:27:26.697Z,22.42
2022-09-16T04:29:54.025Z,29.05
2022-09-16T04:32:21.542Z,17.98
2022-09-16T04:34:48.984Z,18.80
2022-09-16T04:37:16.473Z,19.88
2022-09-16T04:39:43.909Z,15.60
2022-09-16T04:42:12.581Z,24.70
2022-09-16T04:44:40.173Z,21.15
2022-09-16T04:47:08.411Z,24.13
2022-09-16T04:49:35.864Z,23.38
2022-09-16T04:52:03.268Z,23.65
2022-09-16T04:54:30.690Z,17.25
2022-09-16T04:56:58.198Z,16.77
2022-09-16T04:59:25.608Z,18.23
2022-09-16T05:01:53.253Z,19.27
2022-09-16T05:04:21.543Z,22.42
2022-09-16T05:06:48.997Z,20.42
2022-09-16T05:09:16.350Z,25.65
2022-09-16T05:11:44.013Z,15.73
2022-09-16T05:14:15.842Z,19.08
2022-09-16T05:16:43.801Z,21.70
2022-09-16T05:19:13.175Z,21.02
2022-09-16T05:21:41.223Z,31.67
2022-09-16T05:24:11.092Z,23.15
2022-09-16T05:26:42.043Z,17.98
2022-09-16T05:29:16.002Z,24.77
2022-09-16T05:31:47.467Z,25.60
2022-09-16T05:34:21.334Z,17.45
2022-09-16T05:36:53.925Z,12.95
2022-09-16T05:39:24.597Z,20.20
2022-09-16T05:41:58.112Z,18.95
2022-09-16T05:44:26.650Z,22.42
2022-09-16T05:46:54.782Z,22.15
2022-09-16T05:49:23.615Z,20.02
2022-09-16T05:51:51.874Z,20.98
2022-09-16T05:54:20.390Z,31.92
2022-09-16T05:56:48.012Z,28.08
2022-09-16T05:59:16.947Z,23.60
2022-09-16T06:01:45.387Z,20.02
2022-09-16T06:04:14.286Z,13.18
2022-09-16T06:06:43.810Z,20.88
2022-09-16T06:09:17.055Z,24.67
2022-09-16T06:11:47.327Z,14.40
2022-09-16T06:14:16.103Z,16.02
2022-09-16T06:16:43.790Z,17.13
2022-09-16T06:19:14.340Z,24.70
2022-09-16T06:21:44.916Z,23.83
2022-09-16T06:24:13.970Z,21.65
2022-09-16T06:26:43.005Z,45.25
2022-09-16T06:29:11.135Z,29.33
2022-09-16T06:31:39.382Z,31.08
2022-09-16T06:34:08.654Z,37.97
2022-09-16T06:36:42.686Z,18.73
2022-09-16T06:39:13.518Z,29.95
2022-09-16T06:41:41.687Z,38.75
2022-09-16T06:44:09.298Z,39.85
2022-09-16T06:46:36.870Z,41.90
2022-09-16T06:49:06.013Z,27.05
2022-09-16T06:51:34.664Z,20.13
2022-09-16T06:54:07.456Z,22.13
2022-09-16T06:56:39.758Z,15.25
2022-09-16T06:59:08.220Z,19.75
2022-09-16T07:01:36.417Z,17.33
2022-09-16T07:04:06.742Z,19.40
2022-09-16T07:09:22.397Z,21.10
2022-09-16T07:11:49.981Z,17.85
2022-09-16T07:14:17.335Z,46.30
2022-09-16T07:16:44.824Z,14.00
2022-09-16T07:19:12.305Z,11.27
2022-09-16T07:21:41.397Z,10.57
2022-09-16T07:24:12.593Z,11.70
2022-09-16T07:26:41.408Z,12.47
2022-09-16T07:29:12.453Z,21.50
2022-09-16T07:31:40.232Z,16.35
2022-09-16T07:34:09.758Z,20.13
2022-09-16T07:36:40.130Z,14.60
2022-09-16T07:39:08.826Z,24.67
2022-09-16T07:41:38.752Z,17.38
2022-09-16T07:44:07.489Z,20.02
2022-09-16T07:46:36.497Z,18.83
2022-09-16T07:49:05.900Z,14.63
2022-09-16T07:51:34.147Z,25.63
2022-09-16T07:54:05.303Z,17.50
2022-09-16T07:56:34.873Z,13.15
2022-09-16T07:59:04.294Z,20.50
2022-09-16T08:01:31.865Z,15.55
2022-09-16T08:04:01.222Z,23.00
2022-09-16T08:06:30.518Z,18.13
2022-09-16T08:09:10.177Z,19.08
2022-09-16T08:11:47.250Z,23.23
2022-09-16T08:14:14.671Z,15.32
2022-09-16T08:16:42.061Z,16.23
2022-09-16T08:19:09.523Z,19.88
2022-09-16T08:21:36.904Z,13.55
2022-09-16T08:24:04.715Z,22.05
2022-09-16T08:26:32.143Z,16.27
2022-09-16T08:29:15.057Z,22.38
2022-09-16T08:31:42.710Z,23.23
2022-09-16T08:34:10.094Z,15.75
2022-09-16T08:36:37.548Z,17.77
2022-09-16T08:39:04.902Z,17.02
2022-09-16T08:41:56.989Z,22.88
2022-09-16T08:47:39.054Z,48.28
2022-09-16T08:50:18.374Z,15.40
2022-09-16T08:52:47.006Z,17.20
2022-09-16T08:55:31.691Z,19.60
2022-09-16T08:58:07.350Z,14.52
2022-09-16T09:00:34.909Z,10.43
2022-09-16T09:03:26.483Z,26.48
2022-09-16T09:05:56.333Z,17.13
2022-09-16T09:08:32.430Z,18.17
2022-09-16T09:11:15.553Z,21.90
2022-09-16T09:14:00.666Z,23.40
2022-09-16T09:16:49.229Z,14.00
2022-09-16T09:19:53.691Z,18.38
2022-09-16T09:22:38.835Z,16.33
2022-09-16T09:25:24.973Z,12.70
2022-09-16T09:28:13.786Z,14.23
2022-09-16T09:30:49.447Z,13.43
2022-09-16T09:33:46.632Z,13.70
2022-09-16T09:36:51.470Z,24.00
2022-09-16T09:39:40.947Z,22.15
2022-09-16T09:42:22.041Z,15.13
2022-09-16T09:45:24.502Z,18.67
2022-09-16T09:47:59.491Z,16.42
2022-09-16T09:50:33.703Z,15.85
2022-09-16T09:53:25.065Z,16.83
2022-09-16T09:56:08.550Z,18.27
2022-09-16T09:58:53.570Z,14.93
2022-09-16T10:01:21.605Z,18.73
2022-09-16T10:03:54.348Z,17.60
2022-09-16T10:06:33.290Z,13.18
2022-09-16T10:09:01.207Z,16.70
2022-09-16T10:11:31.546Z,18.15
2022-09-16T10:14:01.891Z,18.80
2022-09-16T10:16:37.661Z,20.08
2022-09-16T10:19:21.622Z,14.32
2022-09-16T10:22:07.967Z,17.42
2022-09-16T10:24:40.875Z,20.73
2022-09-16T10:27:36.048Z,16.70
2022-09-16T10:30:08.046Z,17.90
2022-09-16T10:35:08.720Z,16.50
2022-09-16T10:37:37.107Z,18.35
2022-09-16T10:40:07.006Z,15.07
2022-09-16T10:42:34.682Z,17.13
2022-09-16T10:45:13.898Z,17.90
2022-09-16T10:47:46.321Z,14.27
2022-09-16T10:50:19.100Z,16.45
2022-09-16T10:52:47.767Z,15.50
2022-09-16T10:55:28.965Z,12.38
2022-09-16T10:58:09.771Z,16.30
2022-09-16T11:01:03.833Z,16.75
2022-09-16T11:03:43.325Z,13.18
2022-09-16T11:06:22.760Z,20.42
2022-09-16T11:09:02.375Z,15.25
2022-09-16T11:11:52.099Z,19.30
2022-09-16T11:14:38.008Z,14.07
2022-09-16T11:17:26.728Z,24.40
2022-09-16T11:20:34.149Z,13.68
2022-09-16T11:23:38.663Z,11.13
2022-09-16T11:26:44.698Z,20.90
2022-09-16T11:29:39.537Z,26.27
2022-09-16T11:32:22.184Z,15.70
2022-09-16T11:35:09.447Z,11.98
2022-09-16T11:37:49.191Z,13.38
2022-09-16T11:40:45.787Z,9.50
2022-09-16T11:43:31.883Z,16.27
2022-09-16T11:46:11.003Z,20.88
2022-09-16T11:48:44.500Z,12.32
2022-09-16T11:51:24.106Z,12.65
2022-09-16T11:54:03.809Z,14.63
2022-09-16T11:56:46.479Z,16.80
2022-09-16T11:59:26.808Z,16.80
2022-09-16T12:02:13.984Z,55.95
2022-09-16T12:04:47.404Z,12.65
2022-09-16T12:07:34.335Z,16.80
2022-09-16T12:10:32.282Z,13.88
2022-09-16T12:13:09.977Z,13.68
2022-09-16T12:15:42.848Z,14.43
2022-09-16T12:18:17.284Z,14.52
2022-09-16T12:20:51.619Z,20.80
2022-09-16T12:23:26.230Z,49.65
2022-09-16T12:25:56.349Z,20.95
2022-09-16T12:28:38.861Z,20.95
2022-09-16T12:31:30.767Z,12.70
2022-09-16T12:34:06.016Z,35.60
2022-09-16T12:36:38.106Z,52.55
2022-09-16T12:41:57.290Z,22.38
2022-09-16T12:44:34.951Z,23.17
2022-09-16T12:47:21.094Z,18.75
2022-09-16T12:50:07.830Z,15.48
2022-09-16T12:52:41.162Z,18.95
2022-09-16T12:55:26.454Z,13.98
2022-09-16T12:58:12.238Z,14.32
2022-09-16T13:01:10.470Z,19.13
2022-09-16T13:03:41.996Z,15.95
2022-09-16T13:06:29.317Z,14.70
2022-09-16T13:08:58.491Z,17.50
2022-09-16T13:14:32.055Z,17.42
2022-09-16T13:17:02.296Z,13.27
2022-09-16T13:20:00.015Z,18.92
2022-09-16T13:22:35.291Z,44.63
2022-09-16T13:25:09.466Z,26.92
2022-09-16T13:27:40.242Z,18.80
2022-09-16T13:30:13.599Z,51.28
2022-09-16T13:32:43.722Z,21.52
2022-09-16T13:35:22.440Z,25.23
2022-09-16T13:37:53.116Z,13.93
2022-09-16T13:40:25.039Z,10.43
2022-09-16T13:43:12.727Z,18.33
2022-09-16T13:45:43.443Z,27.83
2022-09-16T13:48:18.383Z,46.05
2022-09-16T13:50:58.872Z,34.25
2022-09-16T13:53:31.141Z,31.17
2022-09-16T13:56:16.926Z,18.95
2022-09-16T13:59:15.864Z,13.35
2022-09-16T14:01:59.359Z,13.98
2022-09-16T14:04:30.226Z,11.88
2022-09-16T14:07:10.398Z,14.07
2022-09-16T14:09:56.214Z,17.83
2022-09-16T14:12:32.173Z,17.65
2022-09-16T14:15:00.854Z,14.95
2022-09-16T14:17:37.342Z,19.65
2022-09-16T14:20:05.971Z,34.83
2022-09-16T14:22:33.780Z,28.02
2022-09-16T14:25:12.718Z,19.10
2022-09-16T14:27:46.670Z,13.52
2022-09-16T14:30:17.283Z,8.50
2022-09-16T14:32:46.531Z,23.70
2022-09-16T14:35:22.801Z,24.20
2022-09-16T14:37:57.431Z,13.63
2022-09-16T14:40:27.107Z,12.38
2022-09-16T14:43:03.316Z,12.60
2022-09-16T14:45:31.666Z,17.08
2022-09-16T14:48:02.391Z,12.73
2022-09-16T14:50:36.187Z,17.95
2022-09-16T14:53:06.760Z,20.85
2022-09-16T14:55:40.263Z,8.07
2022-09-16T14:58:10.970Z,14.65
2022-09-16T15:00:51.386Z,8.68
2022-09-16T15:03:24.803Z,11.60
2022-09-16T15:05:55.184Z,13.00
2022-09-16T15:08:30.398Z,18.75
2022-09-16T15:11:01.616Z,17.13
2022-09-16T15:13:35.525Z,15.57
2022-09-16T15:16:15.867Z,10.43
2022-09-16T15:19:04.418Z,18.05
2022-09-16T15:21:38.083Z,10.32
2022-09-16T15:24:20.367Z,16.30
2022-09-16T15:26:48.769Z,12.95
2022-09-16T15:29:18.897Z,10.60
2022-09-16T15:31:47.234Z,14.57
2022-09-16T15:34:23.410Z,10.32
2022-09-16T15:36:58.933Z,12.50
2022-09-16T15:39:37.289Z,21.10
2022-09-16T15:42:16.435Z,20.00
2022-09-16T15:44:56.501Z,14.98
2022-09-16T15:47:30.060Z,11.60
2022-09-16T15:50:02.381Z,18.00
2022-09-16T15:52:34.070Z,13.05
2022-09-16T15:55:05.196Z,15.13
2022-09-16T15:57:44.742Z,10.10
2022-09-16T16:00:16.165Z,13.02
2022-09-16T16:02:57.479Z,15.18
2022-09-16T16:05:31.201Z,10.60
2022-09-16T16:08:07.469Z,14.77
2022-09-16T16:10:36.558Z,13.07
2022-09-16T16:13:06.582Z,18.15
2022-09-16T16:15:36.317Z,11.48
2022-09-16T16:18:06.840Z,15.02
2022-09-16T16:20:37.038Z,12.50
2022-09-16T16:23:04.523Z,12.35
2022-09-16T16:25:32.319Z,14.38
2022-09-16T16:27:59.683Z,15.80
2022-09-16T16:30:27.073Z,8.32
2022-09-16T16:32:54.432Z,13.50
2022-09-16T16:35:21.815Z,8.68
2022-09-16T16:37:49.283Z,13.05
2022-09-16T16:40:16.857Z,11.00
2022-09-16T16:42:44.611Z,18.98
2022-09-16T16:45:13.690Z,10.32
2022-09-16T16:47:42.184Z,10.23
2022-09-16T16:50:10.738Z,17.83
2022-09-16T16:52:38.449Z,19.10
2022-09-16T16:55:06.761Z,10.38
2022-09-16T16:57:34.349Z,15.85
2022-09-16T17:00:01.957Z,11.30
2022-09-16T17:02:29.855Z,8.70
2022-09-16T17:04:57.302Z,11.18
2022-09-16T17:07:26.632Z,13.05
2022-09-16T17:09:56.359Z,12.93
2022-09-16T17:12:23.730Z,14.60
2022-09-16T17:14:51.107Z,14.48
2022-09-16T17:17:18.544Z,14.82
2022-09-16T17:19:45.941Z,16.33
2022-09-16T17:22:13.318Z,8.95
2022-09-16T17:24:40.749Z,13.35
2022-09-16T17:27:08.135Z,11.52
2022-09-16T17:29:35.550Z,12.30
2022-09-16T17:32:03.397Z,16.00
2022-09-16T17:34:31.211Z,13.57
2022-09-16T17:36:58.907Z,10.50
2022-09-16T17:39:26.574Z,17.98
2022-09-16T17:41:56.605Z,10.20
2022-09-16T17:44:24.876Z,10.90
2022-09-16T17:46:52.703Z,11.18
2022-09-16T17:49:22.379Z,18.98
2022-09-16T17:51:51.602Z,17.88
2022-09-16T17:54:19.453Z,13.88
2022-09-16T17:56:47.194Z,19.85
2022-09-16T17:59:17.268Z,11.82
2022-09-16T18:01:45.437Z,14.75
2022-09-16T18:04:12.881Z,15.57
2022-09-16T18:06:42.667Z,11.52
2022-09-16T18:09:11.071Z,16.00
2022-09-16T18:11:39.443Z,10.15
2022-09-16T18:14:10.093Z,12.57
2022-09-16T18:16:37.745Z,13.13
2022-09-16T18:19:05.786Z,17.50
2022-09-16T18:21:33.743Z,14.93
2022-09-16T18:24:02.708Z,15.55
2022-09-16T18:26:31.499Z,13.93
2022-09-16T18:29:10.549Z,14.00
2022-09-16T18:31:41.008Z,14.00
2022-09-16T18:34:08.528Z,13.70
2022-09-16T18:36:37.068Z,12.68
2022-09-16T18:39:05.161Z,14.63
2022-09-16T18:41:38.323Z,16.00
2022-09-16T18:44:10.907Z,13.88
2022-09-16T18:46:38.983Z,20.02
2022-09-16T18:49:07.494Z,33.50
2022-09-16T18:51:37.699Z,15.95
2022-09-16T18:54:07.704Z,17.92
2022-09-16T18:56:37.100Z,13.43
2022-09-16T18:59:23.378Z,19.02
2022-09-16T19:01:57.038Z,15.38
2022-09-16T19:04:28.766Z,17.77
2022-09-16T19:06:59.976Z,17.35
2022-09-16T19:09:29.887Z,11.82
2022-09-16T19:12:01.655Z,16.90
2022-09-16T19:14:30.958Z,13.85
2022-09-16T19:17:04.086Z,18.70
2022-09-16T19:19:33.518Z,15.90
2022-09-16T19:22:05.627Z,10.18
2022-09-16T19:24:34.079Z,14.45
2022-09-16T19:27:01.599Z,10.30
2022-09-16T19:29:29.010Z,12.05
2022-09-16T19:31:57.391Z,17.98
2022-09-16T19:34:24.811Z,13.88
2022-09-16T19:36:52.345Z,12.82
2022-09-16T19:39:21.223Z,11.93
2022-09-16T19:41:48.782Z,21.05
2022-09-16T19:44:17.609Z,12.45
2022-09-16T19:46:47.027Z,10.77
2022-09-16T19:49:20.214Z,12.27
2022-09-16T19:51:48.452Z,17.38
2022-09-16T19:54:16.574Z,16.88
2022-09-16T19:56:49.536Z,13.63
2022-09-16T19:59:18.949Z,18.55
2022-09-16T20:01:47.693Z,34.40
2022-09-16T20:04:19.522Z,11.70
2022-09-16T20:06:47.771Z,10.95
2022-09-16T20:09:15.170Z,13.68
2022-09-16T20:11:45.154Z,11.15
2022-09-16T20:14:20.690Z,9.15
2022-09-16T20:16:49.603Z,9.18
2022-09-16T20:19:18.858Z,7.78
2022-09-16T20:21:46.349Z,7.28
2022-09-16T20:24:16.580Z,4.90
2022-09-16T20:26:44.594Z,6.28
2022-09-16T20:29:12.055Z,7.07
2022-09-16T20:31:39.536Z,6.00
2022-09-16T20:34:06.980Z,5.50
2022-09-16T20:36:38.141Z,7.97
2022-09-16T20:39:07.037Z,4.60
2022-09-16T20:41:35.956Z,3.40
2022-09-16T20:44:04.685Z,3.15
2022-09-16T20:46:38.704Z,9.30
2022-09-16T20:49:10.534Z,6.35
2022-09-16T20:51:38.025Z,3.33
2022-09-16T20:54:08.832Z,3.95
2022-09-16T20:56:39.765Z,3.70
2022-09-16T20:59:08.787Z,6.40
2022-09-16T21:01:37.439Z,4.20
2022-09-16T21:04:07.934Z,2.80
2022-09-16T21:06:36.469Z,4.57
2022-09-16T21:09:10.211Z,3.22
2022-09-16T21:11:43.322Z,3.08
2022-09-16T21:14:12.383Z,3.15
2022-09-16T21:16:40.907Z,4.75
2022-09-16T21:19:10.569Z,10.68
2022-09-16T21:21:40.421Z,6.07
2022-09-16T21:24:08.545Z,4.88
2022-09-16T21:26:38.114Z,5.53
2022-09-16T21:29:11.468Z,4.18
2022-09-16T21:31:40.964Z,3.60
2022-09-16T21:34:26.843Z,4.45
2022-09-16T21:36:54.235Z,4.28
2022-09-16T21:39:21.922Z,3.35
2022-09-16T21:41:49.719Z,8.20
2022-09-16T21:44:17.414Z,4.30
2022-09-16T21:46:46.531Z,2.88
2022-09-16T21:49:29.080Z,9.00
2022-09-16T21:51:58.819Z,4.40
2022-09-16T21:54:26.741Z,2.97
2022-09-16T21:56:54.264Z,2.53
2022-09-16T21:59:21.707Z,3.53
2022-09-16T22:01:50.875Z,3.92
2022-09-16T22:04:22.801Z,5.97
2022-09-16T22:06:52.644Z,3.75
2022-09-16T22:09:20.159Z,2.67
2022-09-16T22:11:47.884Z,2.55
2022-09-16T22:14:16.223Z,1.80
2022-09-16T22:16:44.176Z,2.20
2022-09-16T22:19:17.401Z,3.28
2022-09-16T22:21:47.728Z,2.85
2022-09-16T22:24:20.461Z,5.15
2022-09-16T22:26:50.007Z,4.70
2022-09-16T22:29:17.452Z,4.80
2022-09-16T22:31:44.877Z,3.40
2022-09-16T22:34:12.367Z,3.05
2022-09-16T22:36:40.189Z,1.48
2022-09-16T22:39:12.420Z,5.00
2022-09-16T22:41:39.893Z,1.98
2022-09-16T22:44:07.786Z,2.42
2022-09-16T22:46:41.146Z,0.90
2022-09-16T22:49:09.706Z,2.20
2022-09-16T22:51:38.046Z,2.42
2022-09-16T22:54:06.324Z,0.60
2022-09-16T22:56:34.923Z,3.22
2022-09-16T22:59:05.446Z,3.30
2022-09-16T23:01:38.576Z,2.85
2022-09-16T23:04:07.662Z,0.90
2022-09-16T23:06:37.187Z,1.63
2022-09-16T23:09:06.602Z,2.28
2022-09-16T23:11:35.219Z,1.55
2022-09-16T23:14:05.219Z,1.50
2022-09-16T23:16:44.836Z,2.17
2022-09-16T23:19:12.654Z,3.03
2022-09-16T23:21:40.798Z,0.47
2022-09-16T23:24:12.111Z,1.40
2022-09-16T23:26:40.095Z,0.40
2022-09-16T23:29:10.056Z,2.63
2022-09-16T23:31:40.441Z,3.45
2022-09-16T23:34:19.033Z,3.25
2022-09-16T23:36:47.310Z,13.60
2022-09-16T23:39:16.677Z,5.43
2022-09-16T23:41:45.111Z,3.67
2022-09-16T23:44:16.517Z,8.68
2022-09-16T23:46:44.705Z,13.30
2022-09-16T23:49:12.550Z,0.88
2022-09-16T23:51:39.921Z,3.35
2022-09-16T23:54:07.794Z,1.55
2022-09-16T23:56:35.186Z,2.22
2022-09-16T23:59:03.519Z,3.00
